Time;durP1;ratioP1;P1;durP2;ratioP2;P2;SDS_P1;SDS_P2;PMS_P1;PMS_P2;Temp;Humidity;BMP_temperature;BMP_pressure;BME280_temperature;BME280_humidity;BME280_pressure;Samples;Min_cycle;Max_cycle;Signal;HPM_P1;HPM_P2
2023/08/27 00:00:18;;;;;;;12.68;4.75;;;;;;;23.30;53.08;94001.03;4919780;29;20039;-84
2023/08/27 00:02:44;;;;;;;9.10;4.68;;;;;;;23.40;53.21;93996.97;4919922;29;20042;-84
2023/08/27 00:05:09;;;;;;;11.57;4.50;;;;;;;23.42;55.10;94010.00;4936909;29;20039;-84
2023/08/27 00:07:35;;;;;;;9.80;4.32;;;;;;;23.00;56.41;94008.88;4936510;29;20094;-83
2023/08/27 00:10:01;;;;;;;6.88;4.30;;;;;;;23.23;53.29;94011.56;4937001;29;20126;-84
2023/08/27 00:12:27;;;;;;;12.18;4.32;;;;;;;22.91;57.60;94011.03;4936765;29;20039;-84
2023/08/27 00:14:53;;;;;;;7.78;4.63;;;;;;;22.87;58.39;94011.72;4920001;29;20063;-84
2023/08/27 00:17:19;;;;;;;11.00;4.47;;;;;;;22.83;55.28;94007.47;4919174;29;20066;-84
2023/08/27 00:19:44;;;;;;;9.40;4.95;;;;;;;22.73;56.81;94000.78;4936795;29;20058;-84
2023/08/27 00:22:10;;;;;;;9.40;4.60;;;;;;;22.83;55.76;93996.78;4919794;29;20043;-84
2023/08/27 00:24:35;;;;;;;9.18;4.20;;;;;;;22.88;55.09;93993.81;4919422;29;20030;-84
2023/08/27 00:27:00;;;;;;;9.50;4.85;;;;;;;22.52;57.41;93979.81;4936311;29;20039;-84
2023/08/27 00:29:26;;;;;;;12.30;4.53;;;;;;;22.39;58.18;93966.59;4920075;29;20046;-85
2023/08/27 00:31:51;;;;;;;9.65;4.68;;;;;;;22.37;57.52;93958.16;4919733;29;20505;-84
2023/08/27 00:34:17;;;;;;;11.60;4.70;;;;;;;22.31;59.00;93964.91;4919450;29;20057;-84
2023/08/27 00:36:42;;;;;;;8.15;4.45;;;;;;;22.47;57.45;93956.84;4919445;29;20055;-84
2023/08/27 00:39:08;;;;;;;12.13;4.70;;;;;;;22.30;57.75;93950.78;4919242;29;20427;-84
2023/08/27 00:41:33;;;;;;;8.75;4.70;;;;;;;22.28;57.39;93960.28;4919754;29;20079;-84
2023/08/27 00:43:59;;;;;;;8.13;4.68;;;;;;;22.30;57.29;93966.78;4919597;29;20047;-84
2023/08/27 00:46:24;;;;;;;6.38;4.70;;;;;;;22.37;57.38;93958.16;4944891;29;20326;-84
2023/08/27 00:48:50;;;;;;;12.98;5.10;;;;;;;22.45;57.22;93954.50;4955064;29;20031;-84
2023/08/27 00:51:15;;;;;;;12.30;4.95;;;;;;;22.42;58.62;93949.88;4938405;29;20043;-83
2023/08/27 00:53:41;;;;;;;7.22;4.45;;;;;;;22.50;61.99;93952.69;4938693;29;20038;-84
2023/08/27 00:56:07;;;;;;;10.73;5.47;;;;;;;22.28;60.80;93942.34;4938525;29;20117;-84
2023/08/27 00:58:32;;;;;;;14.80;5.20;;;;;;;22.33;58.63;93954.66;4940184;29;20042;-84
2023/08/27 01:00:58;;;;;;;7.97;5.05;;;;;;;22.39;59.37;93944.47;4941608;29;20035;-84
2023/08/27 01:03:24;;;;;;;10.18;5.10;;;;;;;22.53;58.49;93954.69;4941001;29;20528;-84
2023/08/27 01:05:51;;;;;;;12.43;4.88;;;;;;;22.66;58.87;93955.28;4941722;29;20105;-84
2023/08/27 01:08:42;;;;;;;8.32;5.13;;;;;;;22.79;56.74;93953.97;4940276;29;20099;-84
2023/08/27 01:11:10;;;;;;;14.25;5.05;;;;;;;22.85;56.09;93951.78;4920286;29;20035;-84
2023/08/27 01:13:44;;;;;;;11.98;6.15;;;;;;;22.73;56.73;93945.50;4954178;29;20086;-84
2023/08/27 01:16:11;;;;;;;12.60;5.55;;;;;;;22.49;57.58;93937.81;4958786;29;20034;-84
2023/08/27 01:18:36;;;;;;;10.80;5.35;;;;;;;22.55;57.40;93945.16;4958684;29;20102;-84
2023/08/27 01:21:18;;;;;;;10.30;5.03;;;;;;;22.59;55.70;93938.03;4925987;29;20512;-84
2023/08/27 01:23:45;;;;;;;10.68;5.55;;;;;;;22.54;55.98;93938.28;4941402;29;20027;-84
2023/08/27 01:26:13;;;;;;;10.10;5.50;;;;;;;22.75;54.78;93950.50;4958946;29;20031;-84
2023/08/27 01:28:45;;;;;;;9.50;5.45;;;;;;;22.95;55.07;93937.81;4941286;29;20117;-84
2023/08/27 01:31:15;;;;;;;8.38;5.63;;;;;;;23.08;53.27;93935.75;4941666;29;20093;-84
2023/08/27 01:33:41;;;;;;;7.53;5.10;;;;;;;23.10;56.24;93935.41;4940418;29;20039;-83
2023/08/27 01:36:07;;;;;;;11.90;5.60;;;;;;;22.83;56.80;93940.69;4941313;29;20039;-84
2023/08/27 01:38:33;;;;;;;12.82;5.40;;;;;;;22.78;56.42;93944.44;4958216;29;20043;-83
2023/08/27 01:40:58;;;;;;;13.07;5.30;;;;;;;22.81;56.15;93942.94;4940947;29;20449;-84
2023/08/27 01:43:24;;;;;;;14.93;5.80;;;;;;;22.73;56.77;93950.84;4958597;29;20039;-84
2023/08/27 01:45:50;;;;;;;9.57;5.72;;;;;;;22.95;56.02;93945.84;4925550;29;20038;-84
2023/08/27 01:48:15;;;;;;;10.73;5.75;;;;;;;23.16;58.11;93952.66;4941284;29;20041;-84
2023/08/27 01:50:41;;;;;;;11.02;6.00;;;;;;;23.66;54.55;93951.88;4925350;29;20353;-84
2023/08/27 01:53:06;;;;;;;10.50;6.07;;;;;;;24.11;52.74;93960.91;4941183;29;20041;-83
2023/08/27 01:55:37;;;;;;;13.05;6.20;;;;;;;24.68;49.99;93959.22;4941261;29;20046;-83
2023/08/27 01:58:04;;;;;;;10.98;6.60;;;;;;;24.71;50.31;93959.25;4940487;29;20035;-83
2023/08/27 02:00:29;;;;;;;10.13;5.90;;;;;;;24.75;48.89;93945.91;4958566;29;20038;-83
2023/08/27 02:02:55;;;;;;;9.20;5.55;;;;;;;24.98;47.23;93926.22;4940427;29;20081;-83
2023/08/27 02:05:20;;;;;;;14.15;6.03;;;;;;;24.83;47.92;93926.09;4958133;29;20047;-83
2023/08/27 02:07:46;;;;;;;8.82;4.88;;;;;;;24.67;48.23;93928.97;4957384;29;20034;-84
2023/08/27 02:10:11;;;;;;;8.27;5.45;;;;;;;24.80;47.46;93926.06;4957984;28;20047;-83
2023/08/27 02:12:37;;;;;;;12.93;6.03;;;;;;;24.73;47.91;93925.97;4957998;29;20046;-83
2023/08/27 02:15:12;;;;;;;9.68;5.78;;;;;;;24.70;47.92;93933.63;4940539;29;20063;-83
2023/08/27 02:17:38;;;;;;;10.90;5.75;;;;;;;24.12;51.57;93941.06;4957258;29;20035;-84
2023/08/27 02:20:07;;;;;;;10.55;6.00;;;;;;;23.96;52.72;93941.19;4940844;29;20215;-84
2023/08/27 02:22:33;;;;;;;9.57;6.55;;;;;;;23.88;51.22;93942.22;4940895;29;20038;-84
2023/08/27 02:24:58;;;;;;;8.27;5.80;;;;;;;23.93;50.97;93946.50;4957606;29;20041;-84
2023/08/27 02:27:24;;;;;;;16.02;6.03;;;;;;;23.89;51.45;93935.78;4957378;29;20439;-84
2023/08/27 02:29:49;;;;;;;12.35;6.15;;;;;;;23.85;52.10;93927.69;4957754;29;20043;-84
2023/08/27 02:32:14;;;;;;;8.48;5.82;;;;;;;23.47;54.00;93921.47;4957406;29;20035;-84
2023/08/27 02:34:40;;;;;;;11.43;6.15;;;;;;;23.44;53.54;93919.50;4957337;29;20395;-84
2023/08/27 02:37:05;;;;;;;11.75;6.18;;;;;;;23.17;55.08;93922.16;4957210;29;20114;-84
2023/08/27 02:39:30;;;;;;;11.82;6.40;;;;;;;23.11;54.64;93912.91;4940023;29;20058;-84
2023/08/27 02:41:56;;;;;;;16.23;6.65;;;;;;;23.01;55.47;93915.03;4957536;29;20097;-84
2023/08/27 02:44:21;;;;;;;14.48;6.10;;;;;;;23.18;55.34;93923.69;4940253;29;20117;-83
2023/08/27 02:46:47;;;;;;;7.95;5.88;;;;;;;23.36;53.37;93925.88;4939929;29;20420;-83
2023/08/27 02:49:12;;;;;;;11.63;6.13;;;;;;;23.28;56.43;93927.66;4939806;29;20098;-84
2023/08/27 02:51:37;;;;;;;13.00;6.07;;;;;;;23.36;54.32;93921.31;4939741;29;20034;-84
2023/08/27 02:54:03;;;;;;;11.30;6.22;;;;;;;23.41;53.48;93936.28;4939690;29;20050;-84
2023/08/27 02:56:28;;;;;;;16.05;6.57;;;;;;;23.17;54.96;93924.81;4940125;29;20074;-84
2023/08/27 02:58:53;;;;;;;14.90;6.20;;;;;;;23.12;55.35;93909.84;4956812;29;20054;-84
2023/08/27 03:01:22;;;;;;;12.65;6.07;;;;;;;23.11;55.50;93918.25;4957118;29;20043;-84
2023/08/27 03:03:49;;;;;;;15.10;5.82;;;;;;;23.25;54.70;93907.00;4957123;29;20043;-83
2023/08/27 03:06:14;;;;;;;21.50;6.22;;;;;;;23.74;52.73;93905.38;4939632;29;20035;-84
2023/08/27 03:08:40;;;;;;;10.95;6.60;;;;;;;23.33;55.50;93905.22;4939227;29;20341;-84
2023/08/27 03:11:05;;;;;;;10.57;6.18;;;;;;;23.13;56.15;93910.63;4956952;29;20050;-84
2023/08/27 03:13:31;;;;;;;15.45;6.20;;;;;;;22.98;55.99;93894.41;4939489;29;20143;-84
2023/08/27 03:15:56;;;;;;;12.90;6.63;;;;;;;23.04;56.42;93896.75;4939736;29;20046;-84
2023/08/27 03:18:22;;;;;;;11.02;6.55;;;;;;;23.19;56.65;93901.19;4939317;29;20046;-84
2023/08/27 03:20:47;;;;;;;8.75;6.45;;;;;;;23.14;56.91;93904.91;4940765;29;20042;-83
2023/08/27 03:23:12;;;;;;;8.82;5.97;;;;;;;23.15;56.30;93903.03;4942343;29;20114;-84
2023/08/27 03:25:38;;;;;;;13.15;5.93;;;;;;;23.21;55.13;93903.50;4942405;29;20049;-84
2023/08/27 03:28:04;;;;;;;10.95;6.10;;;;;;;23.16;56.57;93896.56;4958883;29;20042;-84
2023/08/27 03:30:29;;;;;;;11.77;6.72;;;;;;;23.30;54.33;93888.78;4941800;29;20039;-84
2023/08/27 03:32:55;;;;;;;13.50;6.30;;;;;;;23.05;56.17;93888.38;4958742;29;20125;-84
2023/08/27 03:35:20;;;;;;;11.00;6.40;;;;;;;22.99;55.73;93890.59;4926281;29;20079;-84
2023/08/27 03:37:45;;;;;;;10.25;5.90;;;;;;;23.01;56.07;93893.66;4941378;29;20039;-84
2023/08/27 03:40:11;;;;;;;11.80;6.30;;;;;;;23.05;54.88;93895.63;4941442;29;20066;-84
2023/08/27 03:42:37;;;;;;;8.13;6.20;;;;;;;22.99;56.72;93900.50;4941889;29;20035;-84
2023/08/27 03:45:02;;;;;;;10.77;6.35;;;;;;;22.79;57.68;93900.56;4941837;29;20074;-84
2023/08/27 03:47:28;;;;;;;14.23;6.57;;;;;;;22.86;58.20;93910.59;4941591;29;20135;-84
2023/08/27 03:49:53;;;;;;;13.18;6.20;;;;;;;22.75;58.42;93910.44;4959109;29;20070;-84
2023/08/27 03:52:19;;;;;;;9.77;6.07;;;;;;;22.85;56.57;93901.06;4941724;29;20103;-84
2023/08/27 03:54:44;;;;;;;10.13;6.38;;;;;;;22.95;58.73;93905.78;4941825;29;20401;-84
2023/08/27 03:57:09;;;;;;;9.70;6.35;;;;;;;22.76;59.14;93905.84;4941725;29;20354;-84
2023/08/27 03:59:35;;;;;;;10.13;5.85;;;;;;;22.71;57.82;93902.34;4925599;29;20505;-84
2023/08/27 04:02:00;;;;;;;9.90;6.30;;;;;;;22.76;59.05;93901.28;4958894;29;20350;-84
2023/08/27 04:04:26;;;;;;;8.00;5.78;;;;;;;23.06;57.88;93908.63;4940684;29;20039;-83
2023/08/27 04:06:53;;;;;;;11.70;6.25;;;;;;;23.16;57.23;93909.91;4941139;29;20038;-84
2023/08/27 04:09:18;;;;;;;8.82;5.88;;;;;;;22.87;57.89;93909.47;4958472;29;20441;-84
2023/08/27 04:11:44;;;;;;;11.45;6.18;;;;;;;22.86;60.29;93910.59;4958387;29;20049;-84
2023/08/27 04:14:09;;;;;;;11.35;5.78;;;;;;;22.96;60.03;93906.56;4941440;29;20050;-84
2023/08/27 04:16:34;;;;;;;10.50;6.03;;;;;;;23.20;56.82;93899.28;4941575;29;20043;-84
2023/08/27 04:19:00;;;;;;;12.02;6.38;;;;;;;23.19;56.48;93911.09;4958461;29;20050;-84
2023/08/27 04:21:25;;;;;;;8.75;6.28;;;;;;;23.35;56.08;93908.28;4941635;29;20050;-84
2023/08/27 04:23:51;;;;;;;10.38;6.00;;;;;;;23.50;55.77;93922.66;4958634;29;20441;-83
2023/08/27 04:26:18;;;;;;;9.80;5.32;;;;;;;23.50;55.09;93914.63;4958728;29;20118;-84
2023/08/27 04:28:44;;;;;;;10.00;5.78;;;;;;;23.47;54.61;93907.34;4941278;29;20102;-84
2023/08/27 04:31:09;;;;;;;10.65;6.22;;;;;;;23.27;55.76;93923.47;4941389;28;20043;-84
2023/08/27 04:33:34;;;;;;;9.10;6.00;;;;;;;23.50;54.55;93923.41;4929369;29;20031;-84
2023/08/27 04:36:00;;;;;;;11.48;6.78;;;;;;;23.30;55.45;93926.19;4945327;29;20114;-85
2023/08/27 04:38:26;;;;;;;9.27;6.50;;;;;;;23.28;56.54;93923.13;4962065;29;20067;-84
2023/08/27 04:40:52;;;;;;;9.20;6.32;;;;;;;23.40;56.59;93919.44;4945003;29;20078;-84
2023/08/27 04:43:18;;;;;;;11.85;6.38;;;;;;;23.08;60.25;93909.03;4962391;29;20326;-84
2023/08/27 04:45:43;;;;;;;8.90;6.05;;;;;;;23.26;59.19;93904.00;4944898;29;20074;-84
2023/08/27 04:48:09;;;;;;;9.50;5.75;;;;;;;23.18;62.50;93904.22;4944989;29;20042;-84
2023/08/27 04:50:35;;;;;;;7.85;6.15;;;;;;;23.12;61.26;93906.44;4945069;29;20035;-84
2023/08/27 04:53:00;;;;;;;13.32;6.68;;;;;;;23.28;57.55;93907.06;4944668;29;20039;-84
2023/08/27 04:55:26;;;;;;;10.07;6.18;;;;;;;23.20;57.77;93897.38;4962094;29;20039;-84
2023/08/27 04:57:52;;;;;;;14.10;6.63;;;;;;;23.21;57.61;93887.47;4961998;29;20117;-84
2023/08/27 05:00:20;;;;;;;13.05;5.75;;;;;;;23.00;60.09;93878.78;4945315;29;20426;-84
2023/08/27 05:02:46;;;;;;;8.88;6.05;;;;;;;23.24;59.45;93876.06;4945102;29;20433;-84
2023/08/27 05:05:12;;;;;;;10.20;5.93;;;;;;;23.14;58.03;93869.44;4961524;29;20035;-84
2023/08/27 05:07:37;;;;;;;6.25;5.35;;;;;;;23.27;58.85;93872.69;4961759;29;20098;-83
2023/08/27 05:10:03;;;;;;;10.32;6.15;;;;;;;23.08;62.12;93870.84;4944303;29;20046;-83
2023/08/27 05:12:28;;;;;;;11.35;7.10;;;;;;;23.16;57.86;93864.50;4944462;29;20066;-84
2023/08/27 05:14:54;;;;;;;10.23;6.25;;;;;;;23.27;58.82;93875.34;4944560;29;20365;-84
2023/08/27 05:17:19;;;;;;;8.07;6.15;;;;;;;23.36;59.62;93883.91;4961691;29;20449;-86
2023/08/27 05:19:44;;;;;;;12.88;6.05;;;;;;;23.39;58.13;93879.75;4944302;29;20043;-86
2023/08/27 05:22:10;;;;;;;15.48;6.15;;;;;;;23.16;59.30;93878.59;4943933;29;20463;-86
2023/08/27 05:24:35;;;;;;;14.02;6.32;;;;;;;23.46;58.81;93877.16;4944505;29;20401;-86
2023/08/27 05:27:01;;;;;;;12.98;6.22;;;;;;;23.54;59.12;93867.31;4944043;29;20042;-86
2023/08/27 05:29:26;;;;;;;10.75;6.72;;;;;;;23.61;60.50;93878.13;4944157;29;20035;-85
2023/08/27 05:31:52;;;;;;;10.48;5.90;;;;;;;23.21;63.07;93864.19;4961130;29;20038;-87
2023/08/27 05:34:18;;;;;;;10.52;6.68;;;;;;;23.46;67.65;93866.47;4961538;29;20089;-87
2023/08/27 05:36:44;;;;;;;8.93;6.03;;;;;;;23.35;67.43;93868.22;4944242;29;20051;-87
2023/08/27 05:39:10;;;;;;;8.88;6.35;;;;;;;23.30;65.51;93856.72;4961463;29;20039;-87
2023/08/27 05:41:35;;;;;;;14.85;6.85;;;;;;;23.53;63.25;93860.44;4925122;29;20098;-88
2023/08/27 05:44:01;;;;;;;9.07;6.35;;;;;;;23.60;62.17;93857.06;4943700;29;20117;-88
2023/08/27 05:46:28;;;;;;;10.10;6.20;;;;;;;23.80;59.28;93853.09;4944173;29;20086;-88
2023/08/27 05:48:53;;;;;;;10.30;6.28;;;;;;;23.89;71.83;93862.78;4944077;29;20123;-87
2023/08/27 05:51:18;;;;;;;12.18;6.60;;;;;;;23.78;61.22;93863.41;4961009;29;20434;-87
2023/08/27 05:53:44;;;;;;;16.50;6.60;;;;;;;23.92;57.46;93862.03;4927934;29;20104;-87
2023/08/27 05:56:09;;;;;;;10.45;6.28;;;;;;;24.05;57.38;93862.59;4928156;29;20341;-87
2023/08/27 05:58:35;;;;;;;13.38;6.10;;;;;;;24.20;56.34;93861.63;4943980;29;20031;-87
2023/08/27 06:01:02;;;;;;;14.50;6.60;;;;;;;24.17;57.12;93850.88;4959804;29;20039;-87
2023/08/27 06:03:27;;;;;;;11.73;6.25;;;;;;;23.88;63.42;93850.53;4961218;29;20031;-88
2023/08/27 06:05:53;;;;;;;12.52;6.28;;;;;;;23.83;69.30;93855.06;4959822;29;20492;-88
2023/08/27 06:08:18;;;;;;;10.52;6.43;;;;;;;23.42;75.47;93855.72;4960663;29;20042;-87
2023/08/27 06:10:44;;;;;;;13.80;6.60;;;;;;;23.39;77.61;93861.03;4960943;29;20504;-88
2023/08/27 06:13:10;;;;;;;8.13;6.00;;;;;;;23.59;78.10;93853.63;4943697;29;20063;-87
2023/08/27 06:15:37;;;;;;;12.20;6.35;;;;;;;23.84;61.45;93859.28;4925811;29;20027;-87
2023/08/27 06:18:07;;;;;;;12.40;5.97;;;;;;;23.94;60.17;93852.50;4943622;29;20039;-88
2023/08/27 06:20:33;;;;;;;9.70;5.55;;;;;;;24.01;60.22;93849.91;4943205;29;20042;-88
2023/08/27 06:22:59;;;;;;;8.45;6.20;;;;;;;24.31;59.58;93852.91;4927582;29;20027;-88
2023/08/27 06:25:25;;;;;;;10.15;6.20;;;;;;;24.73;78.83;93853.66;4943726;29;20098;-88
2023/08/27 06:27:53;;;;;;;10.63;5.90;;;;;;;24.52;60.72;93849.66;4927698;29;20031;-87
2023/08/27 06:30:19;;;;;;;12.07;6.60;;;;;;;24.53;59.16;93837.78;4943417;29;20035;-88
2023/08/27 06:32:44;;;;;;;9.98;6.45;;;;;;;24.54;71.17;93842.03;4943276;29;20345;-88
2023/08/27 06:35:10;;;;;;;10.52;6.75;;;;;;;24.70;76.15;93847.13;4927629;29;20070;-87
2023/08/27 06:37:35;;;;;;;12.13;6.15;;;;;;;24.87;65.74;93840.41;4927205;29;20042;-87
2023/08/27 06:40:01;;;;;;;10.35;6.38;;;;;;;24.81;72.20;93841.88;4943122;29;20352;-88
2023/08/27 06:42:26;;;;;;;11.63;6.75;;;;;;;24.07;80.25;93837.00;4943241;29;20031;-87
2023/08/27 06:44:51;;;;;;;10.68;6.32;;;;;;;24.83;72.15;93826.97;4924055;29;20051;-85
2023/08/27 06:47:17;;;;;;;11.73;6.47;;;;;;;25.19;70.46;93828.38;4923808;29;20146;-85
2023/08/27 06:49:43;;;;;;;9.48;6.07;;;;;;;25.32;70.72;93834.97;4908279;29;20358;-86
2023/08/27 06:52:09;;;;;;;9.43;5.43;;;;;;;25.48;63.33;93831.19;4938862;29;20035;-91
2023/08/27 06:54:34;;;;;;;8.60;5.90;;;;;;;25.66;64.14;93824.00;4942530;29;20111;-91
2023/08/27 06:57:00;;;;;;;13.38;7.03;;;;;;;25.45;73.94;93827.34;4959390;29;20099;-91
2023/08/27 06:59:25;;;;;;;9.63;6.03;;;;;;;25.86;86.76;93825.63;4959621;29;20035;-91
2023/08/27 07:01:51;;;;;;;14.98;6.65;;;;;;;26.18;89.33;93827.63;4926708;29;20106;-91
2023/08/27 07:04:16;;;;;;;7.88;5.75;;;;;;;25.92;94.23;93821.41;4942612;29;20121;-91
2023/08/27 07:06:41;;;;;;;11.70;6.03;;;;;;;25.97;79.03;93831.78;4926818;29;20106;-92
2023/08/27 07:09:07;;;;;;;11.30;6.20;;;;;;;26.09;75.96;93830.66;4942454;29;20475;-91
2023/08/27 07:11:33;;;;;;;10.20;5.65;;;;;;;26.10;64.88;93837.56;4942595;29;20097;-91
2023/08/27 07:13:59;;;;;;;11.05;5.80;;;;;;;26.49;75.63;93838.81;4942661;29;20448;-91
2023/08/27 07:16:26;;;;;;;12.05;6.25;;;;;;;26.52;89.30;93840.72;4942124;29;20035;-91
2023/08/27 07:18:57;;;;;;;14.50;7.93;;;;;;;25.95;84.36;93826.00;4926350;29;20433;-90
2023/08/27 07:21:22;;;;;;;7.45;5.93;;;;;;;26.61;73.80;93825.00;4926692;29;20095;-90
2023/08/27 07:23:48;;;;;;;9.70;5.47;;;;;;;26.75;72.81;93824.22;4942112;29;20031;-91
2023/08/27 07:26:13;;;;;;;8.52;5.63;;;;;;;27.20;73.32;93823.06;4942532;29;20039;-90
2023/08/27 07:28:39;;;;;;;16.60;6.32;;;;;;;26.92;84.94;93814.66;4925959;29;20065;-90
2023/08/27 07:31:04;;;;;;;10.93;6.22;;;;;;;27.36;85.13;93814.56;4926056;29;20449;-90
2023/08/27 07:33:35;;;;;;;7.63;6.15;;;;;;;27.15;92.86;93813.47;4942286;29;20053;-91
2023/08/27 07:36:03;;;;;;;12.05;5.93;;;;;;;27.88;73.84;93808.59;4926184;29;20055;-86
2023/08/27 07:38:28;;;;;;;9.23;5.95;;;;;;;27.71;67.61;93796.78;4940250;29;20031;-85
2023/08/27 07:40:54;;;;;;;13.00;6.53;;;;;;;27.98;61.56;93804.34;4939889;29;20504;-85
2023/08/27 07:43:20;;;;;;;10.85;5.88;;;;;;;27.54;56.00;93798.38;4940219;29;20032;-84
2023/08/27 07:45:45;;;;;;;9.80;6.35;;;;;;;27.83;63.35;93810.94;4922670;29;20039;-84
2023/08/27 07:48:11;;;;;;;10.10;5.55;;;;;;;27.55;61.98;93823.38;4940968;29;20035;-85
2023/08/27 07:50:38;;;;;;;8.55;5.93;;;;;;;28.57;55.95;93821.69;4941207;29;20027;-85
2023/08/27 07:53:03;;;;;;;8.88;5.68;;;;;;;28.51;57.55;93817.88;4941686;29;20050;-85
2023/08/27 07:55:31;;;;;;;11.02;5.47;;;;;;;28.86;64.01;93808.00;4941529;29;20031;-85
2023/08/27 07:57:59;;;;;;;9.10;5.60;;;;;;;29.05;57.97;93806.66;4925813;29;20042;-85
2023/08/27 08:00:25;;;;;;;10.80;5.30;;;;;;;29.32;53.63;93808.69;4938135;29;20043;-84
2023/08/27 08:02:50;;;;;;;8.18;6.00;;;;;;;27.51;76.26;93810.66;4937086;29;20046;-85
2023/08/27 08:05:16;;;;;;;10.88;5.60;;;;;;;28.19;58.35;93808.09;4941570;29;20039;-86
2023/08/27 08:07:42;;;;;;;10.25;5.80;;;;;;;27.59;66.19;93795.28;4941286;29;20034;-85
2023/08/27 08:10:07;;;;;;;9.52;5.40;;;;;;;28.18;62.37;93799.22;4941643;29;20031;-85
2023/08/27 08:12:33;;;;;;;11.35;6.45;;;;;;;27.83;64.88;93800.16;4941463;29;20043;-83
2023/08/27 08:14:58;;;;;;;13.90;5.75;;;;;;;26.83;60.86;93803.50;4958532;29;20422;-82
2023/08/27 08:17:24;;;;;;;15.35;5.78;;;;;;;27.02;66.20;93818.47;4941431;29;20034;-82
2023/08/27 08:19:50;;;;;;;14.40;6.22;;;;;;;26.68;65.54;93816.94;4958278;29;20110;-82
2023/08/27 08:22:16;;;;;;;10.70;5.65;;;;;;;26.87;66.85;93816.94;4958393;29;20030;-82
2023/08/27 08:24:42;;;;;;;14.00;6.70;;;;;;;26.71;68.58;93820.03;4941091;29;20034;-82
2023/08/27 08:27:07;;;;;;;7.95;5.63;;;;;;;26.97;68.05;93826.94;4940981;29;20162;-82
2023/08/27 08:29:33;;;;;;;11.75;5.65;;;;;;;27.31;70.90;93828.41;4941012;29;20031;-82
2023/08/27 08:31:59;;;;;;;13.73;5.88;;;;;;;26.73;69.39;93815.03;4941145;29;20046;-82
2023/08/27 08:34:27;;;;;;;8.05;5.60;;;;;;;26.81;70.64;93808.47;4941217;29;20038;-84
2023/08/27 08:36:53;;;;;;;8.88;6.40;;;;;;;26.91;82.37;93818.47;4941243;29;20035;-85
2023/08/27 08:39:18;;;;;;;10.00;5.85;;;;;;;26.98;75.91;93825.78;4958036;29;20461;-84
2023/08/27 08:41:46;;;;;;;8.90;6.00;;;;;;;27.30;71.01;93835.69;4941389;29;20445;-84
2023/08/27 08:44:22;;;;;;;8.80;5.70;;;;;;;27.79;62.42;93835.94;4941320;29;20039;-84
2023/08/27 08:46:51;;;;;;;9.27;5.72;;;;;;;28.14;54.00;93832.72;4941312;29;20134;-85
2023/08/27 08:49:18;;;;;;;10.52;5.40;;;;;;;28.13;54.09;93836.56;4941026;29;20053;-84
2023/08/27 08:51:44;;;;;;;9.63;6.20;;;;;;;27.22;75.83;93853.75;4924777;29;20522;-85
2023/08/27 08:54:14;;;;;;;10.20;6.40;;;;;;;27.18;62.98;93849.53;4957999;29;20042;-84
2023/08/27 08:56:43;;;;;;;12.45;6.10;;;;;;;27.63;75.31;93852.56;4941029;29;20041;-84
2023/08/27 08:59:09;;;;;;;10.10;5.88;;;;;;;27.93;66.20;93866.66;4941346;29;20040;-84
2023/08/27 09:01:35;;;;;;;12.32;6.13;;;;;;;27.41;64.70;93859.13;4940973;29;20078;-84
2023/08/27 09:04:01;;;;;;;10.68;6.18;;;;;;;28.36;61.26;93857.63;4941208;29;20035;-84
2023/08/27 09:06:27;;;;;;;7.53;5.65;;;;;;;27.85;60.50;93855.16;4940917;29;20353;-84
2023/08/27 09:08:53;;;;;;;9.98;6.35;;;;;;;27.84;61.47;93863.63;4939913;29;20039;-84
2023/08/27 09:11:21;;;;;;;8.45;5.78;;;;;;;28.72;59.50;93865.44;4957583;29;20425;-84
2023/08/27 09:13:47;;;;;;;8.43;5.45;;;;;;;28.54;66.48;93865.56;4941265;29;20059;-84
2023/08/27 09:16:13;;;;;;;7.78;5.35;;;;;;;28.68;61.40;93866.63;4957981;29;20078;-84
2023/08/27 09:18:38;;;;;;;7.63;5.50;;;;;;;28.46;58.06;93869.47;4941735;29;20039;-84
2023/08/27 09:21:06;;;;;;;7.75;5.47;;;;;;;28.39;71.44;93869.50;4928538;29;20323;-84
2023/08/27 09:23:37;;;;;;;10.55;6.00;;;;;;;28.11;70.96;93860.41;4944257;29;20039;-84
2023/08/27 09:26:03;;;;;;;11.82;6.18;;;;;;;27.17;56.62;93851.47;4928595;29;20035;-84
2023/08/27 09:28:29;;;;;;;12.73;5.95;;;;;;;27.22;79.08;93861.09;4960624;29;20067;-84
2023/08/27 09:30:55;;;;;;;11.50;6.55;;;;;;;27.19;55.08;93859.91;4944389;29;20394;-84
2023/08/27 09:33:35;;;;;;;9.95;6.32;;;;;;;27.82;52.49;93855.16;4943819;29;20433;-84
2023/08/27 09:36:04;;;;;;;9.77;6.70;;;;;;;27.59;51.73;93846.41;4943811;29;20031;-85
2023/08/27 09:38:30;;;;;;;10.13;6.72;;;;;;;27.54;55.00;93851.41;4932934;29;20356;-84
2023/08/27 09:40:56;;;;;;;10.27;6.80;;;;;;;27.43;53.32;93846.81;4960771;29;20027;-86
2023/08/27 09:43:26;;;;;;;13.43;6.53;;;;;;;27.70;50.02;93835.63;4943793;29;20024;-84
2023/08/27 09:45:51;;;;;;;15.98;7.20;;;;;;;27.29;50.50;93841.47;4944170;29;20039;-83
2023/08/27 09:48:25;;;;;;;9.73;6.78;;;;;;;27.82;49.15;93845.16;4960967;29;20039;-85
2023/08/27 09:50:51;;;;;;;15.60;7.35;;;;;;;27.88;48.83;93850.91;4961026;29;20341;-84
2023/08/27 09:53:16;;;;;;;14.38;7.15;;;;;;;27.99;48.33;93845.47;4943808;29;20043;-84
2023/08/27 09:55:42;;;;;;;12.68;7.05;;;;;;;27.75;46.94;93845.19;4943291;29;20526;-84
2023/08/27 09:58:09;;;;;;;10.88;7.53;;;;;;;28.20;47.60;93844.63;4943260;29;20038;-84
2023/08/27 10:00:36;;;;;;;10.40;7.20;;;;;;;28.11;47.83;93844.25;4943941;29;20426;-84
2023/08/27 10:03:03;;;;;;;8.75;6.28;;;;;;;28.71;47.46;93852.38;4943545;29;20035;-83
2023/08/27 10:05:30;;;;;;;9.45;7.10;;;;;;;28.79;45.65;93845.75;4927799;29;20038;-84
2023/08/27 10:08:00;;;;;;;10.07;6.25;;;;;;;29.60;43.90;93849.28;4943346;29;20457;-84
2023/08/27 10:10:27;;;;;;;9.57;6.15;;;;;;;29.55;42.94;93855.09;4943493;29;20035;-84
2023/08/27 10:12:54;;;;;;;9.65;6.60;;;;;;;28.87;42.51;93852.66;4943669;29;20035;-84
2023/08/27 10:15:20;;;;;;;8.38;6.53;;;;;;;28.06;43.74;93856.97;4943254;29;20027;-84
2023/08/27 10:17:47;;;;;;;10.93;7.25;;;;;;;28.12;44.83;93864.63;4943136;29;20077;-84
2023/08/27 10:20:13;;;;;;;8.93;6.25;;;;;;;28.89;44.88;93865.72;4942795;29;20039;-84
2023/08/27 10:22:39;;;;;;;10.35;6.10;;;;;;;28.60;44.42;93871.31;4943371;29;20062;-83
2023/08/27 10:25:05;;;;;;;8.95;6.38;;;;;;;28.69;44.36;93877.03;4927086;29;20067;-84
2023/08/27 10:27:32;;;;;;;12.27;6.72;;;;;;;28.76;44.56;93876.19;4958653;29;20393;-84
2023/08/27 10:29:58;;;;;;;11.05;6.70;;;;;;;28.84;43.50;93880.41;4940597;29;20039;-84
2023/08/27 10:32:24;;;;;;;11.35;7.38;;;;;;;28.36;41.62;93865.69;4923677;29;20039;-84
2023/08/27 10:34:50;;;;;;;9.30;7.40;;;;;;;28.21;41.69;93865.00;4940987;29;20066;-84
2023/08/27 10:37:16;;;;;;;10.38;7.70;;;;;;;28.34;42.58;93862.63;4940987;29;20039;-84
2023/08/27 10:39:42;;;;;;;13.10;8.48;;;;;;;28.09;41.67;93858.88;4923910;29;20047;-84
2023/08/27 10:42:07;;;;;;;12.52;7.65;;;;;;;28.75;41.65;93856.56;4940876;29;20043;-84
2023/08/27 10:44:33;;;;;;;11.57;8.20;;;;;;;28.02;42.56;93855.44;4908195;29;20098;-84
2023/08/27 10:47:13;;;;;;;10.93;7.97;;;;;;;28.51;42.24;93858.28;4923696;29;20043;-84
2023/08/27 10:49:40;;;;;;;18.80;8.25;;;;;;;28.84;42.12;93861.53;4924021;29;20043;-84
2023/08/27 10:52:14;;;;;;;13.00;8.00;;;;;;;28.68;42.15;93845.06;4923743;29;20074;-84
2023/08/27 10:54:39;;;;;;;11.65;8.50;;;;;;;28.10;43.73;93838.13;4940843;29;20047;-84
2023/08/27 10:57:23;;;;;;;14.85;8.23;;;;;;;27.78;43.99;93833.66;4923599;29;20039;-83
2023/08/27 10:59:52;;;;;;;12.45;8.30;;;;;;;28.02;44.50;93839.31;4923648;29;20057;-84
2023/08/27 11:02:17;;;;;;;15.30;7.70;;;;;;;28.36;43.79;93826.06;4941720;29;20098;-84
2023/08/27 11:04:50;;;;;;;13.23;8.43;;;;;;;28.29;43.37;93818.03;4958086;29;20432;-85
2023/08/27 11:07:17;;;;;;;12.85;8.02;;;;;;;27.94;44.63;93809.75;4942569;29;20047;-84
2023/08/27 11:09:56;;;;;;;12.50;8.15;;;;;;;27.93;44.69;93792.06;4942431;29;20389;-84
2023/08/27 11:12:35;;;;;;;12.85;8.35;;;;;;;27.91;44.79;93797.06;4942701;29;20035;-83
2023/08/27 11:15:12;;;;;;;17.25;8.05;;;;;;;28.02;45.02;93799.69;4942458;29;20139;-82
2023/08/27 11:17:38;;;;;;;11.23;7.75;;;;;;;28.00;46.16;93795.84;4941900;29;20691;-83
2023/08/27 11:20:17;;;;;;;14.75;7.70;;;;;;;27.87;47.20;93803.63;4958307;29;20066;-83
2023/08/27 11:22:57;;;;;;;14.15;8.13;;;;;;;28.25;47.23;93797.66;4959794;29;20035;-83
2023/08/27 11:25:26;;;;;;;10.48;8.13;;;;;;;28.36;46.71;93795.66;4957874;29;20031;-83